sensor_id;sensor_type;location;lat;lon;timestamp;P1;durP1;ratioP1;P2;durP2;ratioP2
30173;SDS011;16985;50.814;8.530;2023-05-10T00:00:24;3.75;;;1.20;;
30173;SDS011;16985;50.814;8.530;2023-05-10T00:02:50;3.88;;;1.30;;
30173;SDS011;16985;50.814;8.530;2023-05-10T00:05:16;1.90;;;0.90;;
30173;SDS011;16985;50.814;8.530;2023-05-10T00:07:42;1.75;;;0.88;;
30173;SDS011;16985;50.814;8.530;2023-05-10T00:10:10;2.87;;;0.90;;
30173;SDS011;16985;50.814;8.530;2023-05-10T00:12:36;3.13;;;0.88;;
30173;SDS011;16985;50.814;8.530;2023-05-10T00:15:10;2.63;;;0.70;;
30173;SDS011;16985;50.814;8.530;2023-05-10T00:17:36;10.88;;;1.02;;
30173;SDS011;16985;50.814;8.530;2023-05-10T00:20:02;1.55;;;0.93;;
30173;SDS011;16985;50.814;8.530;2023-05-10T00:22:30;1.25;;;0.80;;
30173;SDS011;16985;50.814;8.530;2023-05-10T00:24:57;4.35;;;0.60;;
30173;SDS011;16985;50.814;8.530;2023-05-10T00:27:23;3.75;;;0.60;;
30173;SDS011;16985;50.814;8.530;2023-05-10T00:29:49;1.55;;;0.60;;
30173;SDS011;16985;50.814;8.530;2023-05-10T00:32:14;1.75;;;0.73;;
30173;SDS011;16985;50.814;8.530;2023-05-10T00:34:42;0.63;;;0.50;;
30173;SDS011;16985;50.814;8.530;2023-05-10T00:37:07;1.15;;;0.60;;
30173;SDS011;16985;50.814;8.530;2023-05-10T00:39:33;0.60;;;0.40;;
30173;SDS011;16985;50.814;8.530;2023-05-10T00:41:59;0.77;;;0.40;;
30173;SDS011;16985;50.814;8.530;2023-05-10T00:44:25;1.42;;;0.40;;
30173;SDS011;16985;50.814;8.530;2023-05-10T00:46:51;0.95;;;0.50;;
30173;SDS011;16985;50.814;8.530;2023-05-10T00:49:25;0.35;;;0.35;;
30173;SDS011;16985;50.814;8.530;2023-05-10T00:51:51;1.00;;;0.40;;
30173;SDS011;16985;50.814;8.530;2023-05-10T00:54:17;0.40;;;0.40;;
30173;SDS011;16985;50.814;8.530;2023-05-10T00:56:43;0.30;;;0.30;;
30173;SDS011;16985;50.814;8.530;2023-05-10T00:59:14;0.40;;;0.40;;
30173;SDS011;16985;50.814;8.530;2023-05-10T01:01:44;0.50;;;0.50;;
30173;SDS011;16985;50.814;8.530;2023-05-10T01:04:11;1.45;;;0.32;;
30173;SDS011;16985;50.814;8.530;2023-05-10T01:06:38;0.40;;;0.40;;
30173;SDS011;16985;50.814;8.530;2023-05-10T01:09:07;0.40;;;0.40;;
30173;SDS011;16985;50.814;8.530;2023-05-10T01:11:36;0.40;;;0.40;;
30173;SDS011;16985;50.814;8.530;2023-05-10T01:14:04;3.05;;;0.40;;
30173;SDS011;16985;50.814;8.530;2023-05-10T01:16:37;2.50;;;0.45;;
30173;SDS011;16985;50.814;8.530;2023-05-10T01:19:06;0.50;;;0.50;;
30173;SDS011;16985;50.814;8.530;2023-05-10T01:28:22;2.10;;;0.50;;
30173;SDS011;16985;50.814;8.530;2023-05-10T01:33:47;0.60;;;0.60;;
30173;SDS011;16985;50.814;8.530;2023-05-10T01:42:11;0.45;;;0.45;;
30173;SDS011;16985;50.814;8.530;2023-05-10T01:45:05;2.05;;;0.40;;
30173;SDS011;16985;50.814;8.530;2023-05-10T01:47:40;0.60;;;0.60;;
30173;SDS011;16985;50.814;8.530;2023-05-10T01:50:16;3.00;;;0.60;;
30173;SDS011;16985;50.814;8.530;2023-05-10T01:52:50;0.47;;;0.47;;
30173;SDS011;16985;50.814;8.530;2023-05-10T01:55:20;2.05;;;0.60;;
30173;SDS011;16985;50.814;8.530;2023-05-10T01:57:51;1.42;;;0.50;;
30173;SDS011;16985;50.814;8.530;2023-05-10T02:00:26;0.45;;;0.45;;
30173;SDS011;16985;50.814;8.530;2023-05-10T02:02:54;0.40;;;0.40;;
30173;SDS011;16985;50.814;8.530;2023-05-10T02:05:20;0.40;;;0.40;;
30173;SDS011;16985;50.814;8.530;2023-05-10T02:07:47;0.90;;;0.50;;
30173;SDS011;16985;50.814;8.530;2023-05-10T02:10:15;0.50;;;0.50;;
30173;SDS011;16985;50.814;8.530;2023-05-10T02:12:58;1.98;;;0.70;;
30173;SDS011;16985;50.814;8.530;2023-05-10T02:15:25;0.40;;;0.40;;
30173;SDS011;16985;50.814;8.530;2023-05-10T02:17:53;2.80;;;0.50;;
30173;SDS011;16985;50.814;8.530;2023-05-10T02:22:48;1.30;;;0.50;;
30173;SDS011;16985;50.814;8.530;2023-05-10T02:25:17;0.40;;;0.40;;
30173;SDS011;16985;50.814;8.530;2023-05-10T02:27:45;0.45;;;0.45;;
30173;SDS011;16985;50.814;8.530;2023-05-10T02:30:12;0.50;;;0.50;;
30173;SDS011;16985;50.814;8.530;2023-05-10T02:32:40;0.50;;;0.50;;
30173;SDS011;16985;50.814;8.530;2023-05-10T02:35:07;0.50;;;0.50;;
30173;SDS011;16985;50.814;8.530;2023-05-10T02:37:35;0.80;;;0.60;;
30173;SDS011;16985;50.814;8.530;2023-05-10T02:40:02;0.40;;;0.40;;
30173;SDS011;16985;50.814;8.530;2023-05-10T02:42:31;2.67;;;0.40;;
30173;SDS011;16985;50.814;8.530;2023-05-10T02:45:05;0.73;;;0.47;;
30173;SDS011;16985;50.814;8.530;2023-05-10T02:47:37;0.50;;;0.50;;
30173;SDS011;16985;50.814;8.530;2023-05-10T02:50:06;0.50;;;0.50;;
30173;SDS011;16985;50.814;8.530;2023-05-10T02:52:36;0.40;;;0.40;;
30173;SDS011;16985;50.814;8.530;2023-05-10T02:55:19;0.40;;;0.40;;
30173;SDS011;16985;50.814;8.530;2023-05-10T02:57:53;0.50;;;0.50;;
30173;SDS011;16985;50.814;8.530;2023-05-10T03:00:24;0.40;;;0.40;;
30173;SDS011;16985;50.814;8.530;2023-05-10T03:02:50;0.60;;;0.60;;
30173;SDS011;16985;50.814;8.530;2023-05-10T03:05:16;4.40;;;0.60;;
30173;SDS011;16985;50.814;8.530;2023-05-10T03:07:42;1.42;;;0.75;;
30173;SDS011;16985;50.814;8.530;2023-05-10T03:10:08;0.70;;;0.60;;
30173;SDS011;16985;50.814;8.530;2023-05-10T03:12:41;0.50;;;0.50;;
30173;SDS011;16985;50.814;8.530;2023-05-10T03:15:42;0.43;;;0.43;;
30173;SDS011;16985;50.814;8.530;2023-05-10T03:18:38;0.60;;;0.60;;
30173;SDS011;16985;50.814;8.530;2023-05-10T03:21:20;3.00;;;0.60;;
30173;SDS011;16985;50.814;8.530;2023-05-10T03:24:08;2.92;;;0.63;;
30173;SDS011;16985;50.814;8.530;2023-05-10T03:26:37;0.98;;;0.98;;
30173;SDS011;16985;50.814;8.530;2023-05-10T03:29:12;0.75;;;0.75;;
30173;SDS011;16985;50.814;8.530;2023-05-10T03:31:39;0.95;;;0.52;;
30173;SDS011;16985;50.814;8.530;2023-05-10T03:34:05;0.80;;;0.73;;
30173;SDS011;16985;50.814;8.530;2023-05-10T03:36:50;0.70;;;0.70;;
30173;SDS011;16985;50.814;8.530;2023-05-10T03:39:16;0.77;;;0.73;;
30173;SDS011;16985;50.814;8.530;2023-05-10T03:41:50;12.20;;;1.08;;
30173;SDS011;16985;50.814;8.530;2023-05-10T03:44:16;1.45;;;0.80;;
30173;SDS011;16985;50.814;8.530;2023-05-10T03:46:42;0.70;;;0.70;;
30173;SDS011;16985;50.814;8.530;2023-05-10T03:49:09;3.30;;;0.90;;
30173;SDS011;16985;50.814;8.530;2023-05-10T03:51:35;2.75;;;1.00;;
30173;SDS011;16985;50.814;8.530;2023-05-10T03:54:01;1.42;;;0.90;;
30173;SDS011;16985;50.814;8.530;2023-05-10T03:56:41;0.80;;;0.80;;
30173;SDS011;16985;50.814;8.530;2023-05-10T03:59:07;1.08;;;0.98;;
30173;SDS011;16985;50.814;8.530;2023-05-10T04:01:34;1.08;;;0.90;;
30173;SDS011;16985;50.814;8.530;2023-05-10T04:04:00;1.35;;;0.85;;
30173;SDS011;16985;50.814;8.530;2023-05-10T04:06:26;2.00;;;1.17;;
30173;SDS011;16985;50.814;8.530;2023-05-10T04:08:53;4.00;;;1.20;;
30173;SDS011;16985;50.814;8.530;2023-05-10T04:11:19;1.88;;;1.20;;
30173;SDS011;16985;50.814;8.530;2023-05-10T04:13:47;1.02;;;1.02;;
30173;SDS011;16985;50.814;8.530;2023-05-10T04:16:13;1.77;;;1.48;;
30173;SDS011;16985;50.814;8.530;2023-05-10T04:18:39;1.85;;;1.60;;
30173;SDS011;16985;50.814;8.530;2023-05-10T04:21:10;2.08;;;1.88;;
30173;SDS011;16985;50.814;8.530;2023-05-10T04:23:38;2.28;;;1.85;;
30173;SDS011;16985;50.814;8.530;2023-05-10T04:26:04;2.00;;;1.80;;
30173;SDS011;16985;50.814;8.530;2023-05-10T04:28:30;2.60;;;1.80;;
30173;SDS011;16985;50.814;8.530;2023-05-10T04:31:02;3.67;;;1.80;;
30173;SDS011;16985;50.814;8.530;2023-05-10T04:33:30;3.15;;;1.83;;
30173;SDS011;16985;50.814;8.530;2023-05-10T04:35:56;3.58;;;2.10;;
30173;SDS011;16985;50.814;8.530;2023-05-10T04:38:22;3.33;;;1.95;;
30173;SDS011;16985;50.814;8.530;2023-05-10T04:40:48;2.83;;;2.50;;
30173;SDS011;16985;50.814;8.530;2023-05-10T04:43:14;4.32;;;1.98;;
30173;SDS011;16985;50.814;8.530;2023-05-10T04:45:39;2.58;;;2.33;;
30173;SDS011;16985;50.814;8.530;2023-05-10T04:48:05;2.42;;;1.90;;
30173;SDS011;16985;50.814;8.530;2023-05-10T04:50:31;2.95;;;2.53;;
30173;SDS011;16985;50.814;8.530;2023-05-10T04:52:57;2.50;;;2.30;;
30173;SDS011;16985;50.814;8.530;2023-05-10T04:55:37;2.45;;;2.25;;
30173;SDS011;16985;50.814;8.530;2023-05-10T04:58:03;3.50;;;2.30;;
30173;SDS011;16985;50.814;8.530;2023-05-10T05:00:29;3.33;;;2.92;;
30173;SDS011;16985;50.814;8.530;2023-05-10T05:02:55;2.72;;;2.40;;
30173;SDS011;16985;50.814;8.530;2023-05-10T05:05:21;3.15;;;2.85;;
30173;SDS011;16985;50.814;8.530;2023-05-10T05:07:46;5.43;;;2.97;;
30173;SDS011;16985;50.814;8.530;2023-05-10T05:10:12;2.72;;;2.47;;
30173;SDS011;16985;50.814;8.530;2023-05-10T05:12:38;5.28;;;3.38;;
30173;SDS011;16985;50.814;8.530;2023-05-10T05:15:04;3.65;;;3.15;;
30173;SDS011;16985;50.814;8.530;2023-05-10T05:17:30;3.60;;;3.25;;
30173;SDS011;16985;50.814;8.530;2023-05-10T05:19:56;5.07;;;3.72;;
30173;SDS011;16985;50.814;8.530;2023-05-10T05:22:22;3.17;;;2.88;;
30173;SDS011;16985;50.814;8.530;2023-05-10T05:25:00;2.65;;;2.45;;
30173;SDS011;16985;50.814;8.530;2023-05-10T05:27:27;3.30;;;3.00;;
30173;SDS011;16985;50.814;8.530;2023-05-10T05:29:53;4.10;;;3.13;;
30173;SDS011;16985;50.814;8.530;2023-05-10T05:32:20;2.50;;;2.30;;
30173;SDS011;16985;50.814;8.530;2023-05-10T05:34:46;3.35;;;2.70;;
30173;SDS011;16985;50.814;8.530;2023-05-10T05:37:15;2.63;;;2.33;;
30173;SDS011;16985;50.814;8.530;2023-05-10T05:39:44;2.67;;;2.40;;
30173;SDS011;16985;50.814;8.530;2023-05-10T05:42:10;2.25;;;2.03;;
30173;SDS011;16985;50.814;8.530;2023-05-10T05:44:37;2.63;;;1.70;;
30173;SDS011;16985;50.814;8.530;2023-05-10T05:47:11;1.70;;;1.60;;
30173;SDS011;16985;50.814;8.530;2023-05-10T05:49:37;1.50;;;1.40;;
30173;SDS011;16985;50.814;8.530;2023-05-10T05:52:03;1.60;;;1.50;;
30173;SDS011;16985;50.814;8.530;2023-05-10T05:54:30;1.40;;;1.30;;
30173;SDS011;16985;50.814;8.530;2023-05-10T05:56:57;2.03;;;1.33;;
30173;SDS011;16985;50.814;8.530;2023-05-10T05:59:27;1.60;;;1.50;;
30173;SDS011;16985;50.814;8.530;2023-05-10T06:01:54;2.10;;;1.90;;
30173;SDS011;16985;50.814;8.530;2023-05-10T06:04:19;2.90;;;2.40;;
30173;SDS011;16985;50.814;8.530;2023-05-10T06:06:45;1.85;;;1.75;;
30173;SDS011;16985;50.814;8.530;2023-05-10T06:09:11;1.88;;;1.67;;
30173;SDS011;16985;50.814;8.530;2023-05-10T06:11:37;1.80;;;1.70;;
30173;SDS011;16985;50.814;8.530;2023-05-10T06:14:04;6.70;;;1.63;;
30173;SDS011;16985;50.814;8.530;2023-05-10T06:16:32;1.52;;;1.42;;
30173;SDS011;16985;50.814;8.530;2023-05-10T06:18:58;2.47;;;1.40;;
30173;SDS011;16985;50.814;8.530;2023-05-10T06:21:24;1.60;;;1.50;;
30173;SDS011;16985;50.814;8.530;2023-05-10T06:23:50;2.40;;;2.03;;
30173;SDS011;16985;50.814;8.530;2023-05-10T06:26:16;1.80;;;1.58;;
30173;SDS011;16985;50.814;8.530;2023-05-10T06:28:42;1.95;;;1.70;;
30173;SDS011;16985;50.814;8.530;2023-05-10T06:31:07;1.30;;;1.20;;
30173;SDS011;16985;50.814;8.530;2023-05-10T06:33:33;4.28;;;1.45;;
30173;SDS011;16985;50.814;8.530;2023-05-10T06:35:59;1.40;;;1.30;;
30173;SDS011;16985;50.814;8.530;2023-05-10T06:38:25;1.70;;;1.60;;
30173;SDS011;16985;50.814;8.530;2023-05-10T06:40:51;1.90;;;1.40;;
30173;SDS011;16985;50.814;8.530;2023-05-10T06:43:17;2.05;;;1.42;;
30173;SDS011;16985;50.814;8.530;2023-05-10T06:45:43;3.35;;;1.45;;
30173;SDS011;16985;50.814;8.530;2023-05-10T06:48:09;2.55;;;1.58;;
30173;SDS011;16985;50.814;8.530;2023-05-10T06:50:34;2.90;;;2.15;;
30173;SDS011;16985;50.814;8.530;2023-05-10T06:53:00;2.13;;;1.88;;
30173;SDS011;16985;50.814;8.530;2023-05-10T06:55:27;2.33;;;2.10;;
30173;SDS011;16985;50.814;8.530;2023-05-10T06:57:53;4.38;;;2.17;;
30173;SDS011;16985;50.814;8.530;2023-05-10T07:00:19;2.50;;;2.30;;
30173;SDS011;16985;50.814;8.530;2023-05-10T07:02:45;2.63;;;1.88;;
30173;SDS011;16985;50.814;8.530;2023-05-10T07:05:12;2.20;;;2.00;;
30173;SDS011;16985;50.814;8.530;2023-05-10T07:07:38;11.25;;;2.50;;
30173;SDS011;16985;50.814;8.530;2023-05-10T07:10:19;2.40;;;2.20;;
30173;SDS011;16985;50.814;8.530;2023-05-10T07:12:45;2.13;;;1.85;;
30173;SDS011;16985;50.814;8.530;2023-05-10T07:15:11;2.20;;;1.95;;
30173;SDS011;16985;50.814;8.530;2023-05-10T07:17:37;3.13;;;2.35;;
30173;SDS011;16985;50.814;8.530;2023-05-10T07:20:03;2.83;;;2.45;;
30173;SDS011;16985;50.814;8.530;2023-05-10T07:22:29;3.10;;;2.40;;
30173;SDS011;16985;50.814;8.530;2023-05-10T07:24:55;3.60;;;2.53;;
30173;SDS011;16985;50.814;8.530;2023-05-10T07:27:21;3.25;;;2.63;;
30173;SDS011;16985;50.814;8.530;2023-05-10T07:29:46;2.83;;;2.50;;
30173;SDS011;16985;50.814;8.530;2023-05-10T07:32:12;4.55;;;2.38;;
30173;SDS011;16985;50.814;8.530;2023-05-10T07:34:38;2.80;;;2.35;;
30173;SDS011;16985;50.814;8.530;2023-05-10T07:37:04;4.78;;;2.80;;
30173;SDS011;16985;50.814;8.530;2023-05-10T07:39:31;3.40;;;2.55;;
30173;SDS011;16985;50.814;8.530;2023-05-10T07:41:56;6.60;;;2.38;;
30173;SDS011;16985;50.814;8.530;2023-05-10T07:44:22;3.03;;;2.72;;
30173;SDS011;16985;50.814;8.530;2023-05-10T07:46:56;5.43;;;3.10;;
30173;SDS011;16985;50.814;8.530;2023-05-10T07:49:22;3.25;;;2.83;;
30173;SDS011;16985;50.814;8.530;2023-05-10T07:52:04;4.20;;;2.63;;
30173;SDS011;16985;50.814;8.530;2023-05-10T07:54:30;3.55;;;3.25;;
30173;SDS011;16985;50.814;8.530;2023-05-10T07:56:55;3.60;;;3.03;;
30173;SDS011;16985;50.814;8.530;2023-05-10T07:59:21;3.92;;;2.80;;
30173;SDS011;16985;50.814;8.530;2023-05-10T08:01:47;3.78;;;3.05;;
30173;SDS011;16985;50.814;8.530;2023-05-10T08:04:13;4.60;;;3.53;;
30173;SDS011;16985;50.814;8.530;2023-05-10T08:06:39;7.97;;;3.28;;
30173;SDS011;16985;50.814;8.530;2023-05-10T08:09:05;3.10;;;2.80;;
30173;SDS011;16985;50.814;8.530;2023-05-10T08:11:31;4.47;;;3.08;;
30173;SDS011;16985;50.814;8.530;2023-05-10T08:13:57;3.45;;;3.00;;
30173;SDS011;16985;50.814;8.530;2023-05-10T08:16:22;4.40;;;2.78;;
30173;SDS011;16985;50.814;8.530;2023-05-10T08:18:48;8.18;;;3.40;;
30173;SDS011;16985;50.814;8.530;2023-05-10T08:21:15;9.25;;;3.70;;
30173;SDS011;16985;50.814;8.530;2023-05-10T08:23:56;10.77;;;3.63;;
30173;SDS011;16985;50.814;8.530;2023-05-10T08:26:22;3.50;;;3.20;;
30173;SDS011;16985;50.814;8.530;2023-05-10T08:28:48;8.75;;;3.40;;
30173;SDS011;16985;50.814;8.530;2023-05-10T08:31:14;5.88;;;3.80;;
30173;SDS011;16985;50.814;8.530;2023-05-10T08:33:40;6.13;;;4.80;;
30173;SDS011;16985;50.814;8.530;2023-05-10T08:36:06;4.88;;;4.05;;
30173;SDS011;16985;50.814;8.530;2023-05-10T08:38:32;12.15;;;4.93;;
30173;SDS011;16985;50.814;8.530;2023-05-10T08:40:58;7.28;;;6.00;;
30173;SDS011;16985;50.814;8.530;2023-05-10T08:43:26;10.75;;;4.72;;
30173;SDS011;16985;50.814;8.530;2023-05-10T08:46:00;5.65;;;4.68;;
30173;SDS011;16985;50.814;8.530;2023-05-10T08:48:30;5.72;;;4.50;;
30173;SDS011;16985;50.814;8.530;2023-05-10T08:51:04;5.47;;;4.25;;
30173;SDS011;16985;50.814;8.530;2023-05-10T08:53:31;8.25;;;5.47;;
30173;SDS011;16985;50.814;8.530;2023-05-10T08:56:01;8.70;;;5.43;;
30173;SDS011;16985;50.814;8.530;2023-05-10T08:58:28;7.75;;;4.97;;
30173;SDS011;16985;50.814;8.530;2023-05-10T09:00:57;8.13;;;5.25;;
30173;SDS011;16985;50.814;8.530;2023-05-10T09:03:24;7.57;;;5.47;;
30173;SDS011;16985;50.814;8.530;2023-05-10T09:05:50;7.88;;;5.40;;
30173;SDS011;16985;50.814;8.530;2023-05-10T09:08:16;8.93;;;5.18;;
30173;SDS011;16985;50.814;8.530;2023-05-10T09:10:43;9.27;;;4.43;;
30173;SDS011;16985;50.814;8.530;2023-05-10T09:13:12;8.88;;;5.13;;
30173;SDS011;16985;50.814;8.530;2023-05-10T09:15:47;9.45;;;4.57;;
30173;SDS011;16985;50.814;8.530;2023-05-10T09:18:14;8.32;;;4.70;;
30173;SDS011;16985;50.814;8.530;2023-05-10T09:20:40;7.32;;;4.05;;
30173;SDS011;16985;50.814;8.530;2023-05-10T09:23:14;6.38;;;4.43;;
30173;SDS011;16985;50.814;8.530;2023-05-10T09:25:41;5.57;;;4.30;;
30173;SDS011;16985;50.814;8.530;2023-05-10T09:28:07;6.77;;;4.20;;
30173;SDS011;16985;50.814;8.530;2023-05-10T09:30:34;6.68;;;3.72;;
30173;SDS011;16985;50.814;8.530;2023-05-10T09:33:01;3.97;;;3.45;;
30173;SDS011;16985;50.814;8.530;2023-05-10T09:35:28;7.82;;;4.95;;
30173;SDS011;16985;50.814;8.530;2023-05-10T09:38:00;9.20;;;4.38;;
30173;SDS011;16985;50.814;8.530;2023-05-10T09:40:28;10.32;;;4.82;;
30173;SDS011;16985;50.814;8.530;2023-05-10T09:45:31;8.77;;;4.75;;
30173;SDS011;16985;50.814;8.530;2023-05-10T09:47:58;10.67;;;5.30;;
30173;SDS011;16985;50.814;8.530;2023-05-10T09:52:56;7.40;;;5.43;;
30173;SDS011;16985;50.814;8.530;2023-05-10T09:55:41;10.13;;;6.53;;
30173;SDS011;16985;50.814;8.530;2023-05-10T09:58:09;13.25;;;6.18;;
30173;SDS011;16985;50.814;8.530;2023-05-10T10:00:36;10.43;;;7.70;;
30173;SDS011;16985;50.814;8.530;2023-05-10T10:03:11;10.05;;;8.15;;
30173;SDS011;16985;50.814;8.530;2023-05-10T10:05:40;11.13;;;7.18;;
30173;SDS011;16985;50.814;8.530;2023-05-10T10:08:10;12.20;;;7.63;;
30173;SDS011;16985;50.814;8.530;2023-05-10T10:10:37;11.50;;;7.87;;
30173;SDS011;16985;50.814;8.530;2023-05-10T10:13:05;10.80;;;7.50;;
30173;SDS011;16985;50.814;8.530;2023-05-10T10:15:32;10.43;;;6.97;;
30173;SDS011;16985;50.814;8.530;2023-05-10T10:17:59;11.43;;;7.80;;
30173;SDS011;16985;50.814;8.530;2023-05-10T10:20:26;10.55;;;7.15;;
30173;SDS011;16985;50.814;8.530;2023-05-10T10:22:53;11.10;;;7.38;;
30173;SDS011;16985;50.814;8.530;2023-05-10T10:25:19;11.45;;;7.28;;
30173;SDS011;16985;50.814;8.530;2023-05-10T10:30:31;14.55;;;8.35;;
30173;SDS011;16985;50.814;8.530;2023-05-10T10:36:05;11.07;;;8.23;;
30173;SDS011;16985;50.814;8.530;2023-05-10T10:38:54;12.82;;;8.73;;
30173;SDS011;16985;50.814;8.530;2023-05-10T10:41:27;13.10;;;8.93;;
30173;SDS011;16985;50.814;8.530;2023-05-10T10:47:05;15.52;;;9.13;;
30173;SDS011;16985;50.814;8.530;2023-05-10T10:54:59;14.68;;;10.23;;
30173;SDS011;16985;50.814;8.530;2023-05-10T10:57:31;20.05;;;9.52;;
30173;SDS011;16985;50.814;8.530;2023-05-10T11:03:14;15.80;;;10.93;;
30173;SDS011;16985;50.814;8.530;2023-05-10T11:08:27;20.23;;;10.52;;
30173;SDS011;16985;50.814;8.530;2023-05-10T11:13:48;18.48;;;8.95;;
30173;SDS011;16985;50.814;8.530;2023-05-10T11:16:16;15.07;;;7.65;;
30173;SDS011;16985;50.814;8.530;2023-05-10T11:19:05;14.80;;;8.30;;
30173;SDS011;16985;50.814;8.530;2023-05-10T11:21:44;14.68;;;6.93;;
30173;SDS011;16985;50.814;8.530;2023-05-10T11:24:28;11.27;;;7.70;;
30173;SDS011;16985;50.814;8.530;2023-05-10T11:26:53;10.68;;;6.57;;
30173;SDS011;16985;50.814;8.530;2023-05-10T11:29:19;12.10;;;7.00;;
30173;SDS011;16985;50.814;8.530;2023-05-10T11:31:46;9.95;;;5.93;;
30173;SDS011;16985;50.814;8.530;2023-05-10T11:34:23;9.85;;;7.63;;
30173;SDS011;16985;50.814;8.530;2023-05-10T11:36:51;8.73;;;6.55;;
30173;SDS011;16985;50.814;8.530;2023-05-10T11:39:19;7.25;;;5.55;;
30173;SDS011;16985;50.814;8.530;2023-05-10T11:41:49;10.13;;;5.68;;
30173;SDS011;16985;50.814;8.530;2023-05-10T11:44:15;7.80;;;5.75;;
30173;SDS011;16985;50.814;8.530;2023-05-10T11:46:41;6.25;;;4.78;;
30173;SDS011;16985;50.814;8.530;2023-05-10T11:49:07;6.72;;;4.53;;
30173;SDS011;16985;50.814;8.530;2023-05-10T11:51:33;5.28;;;4.13;;
30173;SDS011;16985;50.814;8.530;2023-05-10T11:54:08;5.20;;;4.18;;
30173;SDS011;16985;50.814;8.530;2023-05-10T11:56:37;4.50;;;3.80;;
30173;SDS011;16985;50.814;8.530;2023-05-10T11:59:04;5.95;;;4.03;;
30173;SDS011;16985;50.814;8.530;2023-05-10T12:01:30;5.57;;;4.50;;
30173;SDS011;16985;50.814;8.530;2023-05-10T12:03:57;4.65;;;3.97;;
30173;SDS011;16985;50.814;8.530;2023-05-10T12:06:28;5.22;;;4.03;;
30173;SDS011;16985;50.814;8.530;2023-05-10T12:08:56;14.55;;;5.93;;
30173;SDS011;16985;50.814;8.530;2023-05-10T12:11:26;4.78;;;4.13;;
30173;SDS011;16985;50.814;8.530;2023-05-10T12:13:54;6.93;;;3.58;;
30173;SDS011;16985;50.814;8.530;2023-05-10T12:16:22;7.32;;;2.92;;
30173;SDS011;16985;50.814;8.530;2023-05-10T12:18:50;5.50;;;2.50;;
30173;SDS011;16985;50.814;8.530;2023-05-10T12:21:18;3.88;;;2.45;;
30173;SDS011;16985;50.814;8.530;2023-05-10T12:24:01;2.90;;;2.05;;
30173;SDS011;16985;50.814;8.530;2023-05-10T12:26:28;4.60;;;1.45;;
30173;SDS011;16985;50.814;8.530;2023-05-10T12:28:55;1.60;;;1.50;;
30173;SDS011;16985;50.814;8.530;2023-05-10T12:34:29;1.70;;;1.20;;
30173;SDS011;16985;50.814;8.530;2023-05-10T12:36:57;2.03;;;1.17;;
30173;SDS011;16985;50.814;8.530;2023-05-10T12:39:24;4.85;;;1.20;;
30173;SDS011;16985;50.814;8.530;2023-05-10T12:41:50;2.63;;;1.15;;
30173;SDS011;16985;50.814;8.530;2023-05-10T12:44:17;1.35;;;1.25;;
30173;SDS011;16985;50.814;8.530;2023-05-10T12:46:43;1.90;;;0.90;;
30173;SDS011;16985;50.814;8.530;2023-05-10T12:49:08;1.73;;;1.23;;
30173;SDS011;16985;50.814;8.530;2023-05-10T12:51:34;4.13;;;1.60;;
30173;SDS011;16985;50.814;8.530;2023-05-10T12:54:00;4.10;;;1.70;;
30173;SDS011;16985;50.814;8.530;2023-05-10T12:56:27;4.00;;;1.53;;
30173;SDS011;16985;50.814;8.530;2023-05-10T12:58:53;1.98;;;1.40;;
30173;SDS011;16985;50.814;8.530;2023-05-10T13:01:19;3.90;;;1.77;;
30173;SDS011;16985;50.814;8.530;2023-05-10T13:03:45;3.53;;;2.45;;
30173;SDS011;16985;50.814;8.530;2023-05-10T13:06:10;3.72;;;1.45;;
30173;SDS011;16985;50.814;8.530;2023-05-10T13:08:38;1.77;;;1.52;;
30173;SDS011;16985;50.814;8.530;2023-05-10T13:11:04;2.55;;;1.25;;
30173;SDS011;16985;50.814;8.530;2023-05-10T13:13:33;3.75;;;1.35;;
30173;SDS011;16985;50.814;8.530;2023-05-10T13:15:59;2.00;;;1.48;;
30173;SDS011;16985;50.814;8.530;2023-05-10T13:18:25;2.08;;;1.00;;
30173;SDS011;16985;50.814;8.530;2023-05-10T13:20:51;1.20;;;1.02;;
30173;SDS011;16985;50.814;8.530;2023-05-10T13:23:17;2.35;;;1.20;;
30173;SDS011;16985;50.814;8.530;2023-05-10T13:25:43;2.08;;;1.30;;
30173;SDS011;16985;50.814;8.530;2023-05-10T13:28:08;1.20;;;1.10;;
30173;SDS011;16985;50.814;8.530;2023-05-10T13:30:34;2.05;;;0.93;;
30173;SDS011;16985;50.814;8.530;2023-05-10T13:33:00;1.02;;;0.93;;
30173;SDS011;16985;50.814;8.530;2023-05-10T13:35:26;1.08;;;0.85;;
30173;SDS011;16985;50.814;8.530;2023-05-10T13:37:51;2.50;;;0.93;;
30173;SDS011;16985;50.814;8.530;2023-05-10T13:40:18;1.50;;;0.90;;
30173;SDS011;16985;50.814;8.530;2023-05-10T13:42:48;1.00;;;0.90;;
30173;SDS011;16985;50.814;8.530;2023-05-10T13:45:14;1.13;;;1.02;;
30173;SDS011;16985;50.814;8.530;2023-05-10T13:47:39;0.93;;;0.80;;
30173;SDS011;16985;50.814;8.530;2023-05-10T13:50:08;0.82;;;0.82;;
30173;SDS011;16985;50.814;8.530;2023-05-10T13:52:34;0.80;;;0.63;;
30173;SDS011;16985;50.814;8.530;2023-05-10T13:55:00;4.35;;;0.98;;
30173;SDS011;16985;50.814;8.530;2023-05-10T13:57:26;0.90;;;0.90;;
30173;SDS011;16985;50.814;8.530;2023-05-10T13:59:53;0.70;;;0.70;;
30173;SDS011;16985;50.814;8.530;2023-05-10T14:02:19;3.80;;;0.93;;
30173;SDS011;16985;50.814;8.530;2023-05-10T14:04:45;1.92;;;1.00;;
30173;SDS011;16985;50.814;8.530;2023-05-10T14:07:11;2.65;;;0.80;;
30173;SDS011;16985;50.814;8.530;2023-05-10T14:09:36;1.20;;;1.10;;
30173;SDS011;16985;50.814;8.530;2023-05-10T14:12:02;1.92;;;0.93;;
30173;SDS011;16985;50.814;8.530;2023-05-10T14:14:28;1.10;;;0.93;;
30173;SDS011;16985;50.814;8.530;2023-05-10T14:16:54;1.23;;;1.10;;
30173;SDS011;16985;50.814;8.530;2023-05-10T14:19:20;1.58;;;0.98;;
30173;SDS011;16985;50.814;8.530;2023-05-10T14:21:46;1.48;;;1.23;;
30173;SDS011;16985;50.814;8.530;2023-05-10T14:24:12;1.23;;;1.10;;
30173;SDS011;16985;50.814;8.530;2023-05-10T14:26:52;1.02;;;0.93;;
30173;SDS011;16985;50.814;8.530;2023-05-10T14:29:19;1.08;;;1.08;;
30173;SDS011;16985;50.814;8.530;2023-05-10T14:31:46;1.40;;;1.30;;
30173;SDS011;16985;50.814;8.530;2023-05-10T14:34:11;1.38;;;1.10;;
30173;SDS011;16985;50.814;8.530;2023-05-10T14:36:37;2.33;;;1.20;;
30173;SDS011;16985;50.814;8.530;2023-05-10T14:39:03;1.50;;;1.25;;
30173;SDS011;16985;50.814;8.530;2023-05-10T14:41:29;1.65;;;1.20;;
30173;SDS011;16985;50.814;8.530;2023-05-10T14:43:55;1.90;;;1.55;;
30173;SDS011;16985;50.814;8.530;2023-05-10T14:46:21;1.25;;;1.15;;
30173;SDS011;16985;50.814;8.530;2023-05-10T14:48:46;2.95;;;1.40;;
30173;SDS011;16985;50.814;8.530;2023-05-10T14:51:12;5.13;;;1.17;;
30173;SDS011;16985;50.814;8.530;2023-05-10T14:53:38;1.58;;;1.48;;
30173;SDS011;16985;50.814;8.530;2023-05-10T14:56:04;1.95;;;1.27;;
30173;SDS011;16985;50.814;8.530;2023-05-10T14:58:30;1.70;;;1.60;;
30173;SDS011;16985;50.814;8.530;2023-05-10T15:00:56;4.00;;;1.83;;
30173;SDS011;16985;50.814;8.530;2023-05-10T15:03:22;1.85;;;1.45;;
30173;SDS011;16985;50.814;8.530;2023-05-10T15:05:48;2.90;;;1.48;;
30173;SDS011;16985;50.814;8.530;2023-05-10T15:08:13;3.72;;;1.65;;
30173;SDS011;16985;50.814;8.530;2023-05-10T15:10:39;4.40;;;2.08;;
30173;SDS011;16985;50.814;8.530;2023-05-10T15:13:05;3.38;;;2.25;;
30173;SDS011;16985;50.814;8.530;2023-05-10T15:15:31;2.15;;;1.70;;
30173;SDS011;16985;50.814;8.530;2023-05-10T15:17:57;2.80;;;2.20;;
30173;SDS011;16985;50.814;8.530;2023-05-10T15:20:22;4.25;;;2.22;;
30173;SDS011;16985;50.814;8.530;2023-05-10T15:22:48;7.80;;;2.30;;
30173;SDS011;16985;50.814;8.530;2023-05-10T15:25:14;2.80;;;2.38;;
30173;SDS011;16985;50.814;8.530;2023-05-10T15:27:41;3.55;;;2.40;;
30173;SDS011;16985;50.814;8.530;2023-05-10T15:30:08;4.82;;;2.45;;
30173;SDS011;16985;50.814;8.530;2023-05-10T15:32:35;3.35;;;2.10;;
30173;SDS011;16985;50.814;8.530;2023-05-10T15:35:02;4.22;;;2.10;;
30173;SDS011;16985;50.814;8.530;2023-05-10T15:37:28;3.28;;;2.03;;
30173;SDS011;16985;50.814;8.530;2023-05-10T15:39:54;4.95;;;2.38;;